.
WxDataArchive / Data Records for 2008-12-09
2008-12-08 December 2008 2008-12-10

Data Records for Tuesday, 09 December 2008

Time	Temp	Chill	HIndex	Humid	Dewpt	 Wind 	HiWind	WindDir	Rain 	Barom 
-----	----	-----	------	-----	-----	------	------	-------	-----	----- 
00:00	34.9	34.9	34.9	73	27.1	0	1	135	0.00	29.880 
00:05	35.0	35.0	35.0	73	27.2	0	1	135	0.00	29.875 
00:10	35.0	35.0	35.0	73	27.2	0	1	135	0.00	29.873 
00:15	35.0	35.0	35.0	72	26.9	0	2	135	0.00	29.865 
00:20	35.2	35.2	35.2	72	27.1	0	1	135	0.00	29.861 
00:25	35.2	35.2	35.2	72	27.1	1	3	112	0.00	29.853 
00:30	35.2	35.2	35.2	71	26.8	1	3	90	0.00	29.849 
00:35	35.3	35.3	35.3	71	26.9	1	3	135	0.00	29.849 
00:40	35.3	35.3	35.3	70	26.5	0	3	112	0.00	29.847 
00:45	35.5	35.5	35.5	71	27.0	1	2	135	0.00	29.842 
00:50	35.5	35.5	35.5	70	26.7	0	2	90	0.00	29.842 
00:55	35.5	35.5	35.5	69	26.4	0	2	135	0.00	29.836 
01:00	35.6	35.6	35.6	68	26.1	0	2	135	0.00	29.840 
01:05	35.8	35.8	35.8	67	25.9	0	2	135	0.00	29.843 
01:10	35.8	35.8	35.8	66	25.6	0	2	135	0.00	29.838 
01:15	35.9	35.9	35.9	66	25.7	0	1	158	0.00	29.846 
01:20	35.9	35.9	35.9	65	25.3	0	1	158	0.00	29.847 
01:25	35.9	35.9	35.9	65	25.3	0	1	158	0.00	29.846 
01:30	35.9	35.9	35.9	64	24.9	0	1	158	0.00	29.846 
01:35	36.2	36.2	36.2	62	24.5	0	3	158	0.00	29.842 
01:40	36.8	36.8	36.8	59	23.8	0	2	112	0.00	29.832 
01:45	37.6	37.6	37.6	56	23.3	1	5	338	0.00	29.834 
01:50	38.3	38.3	38.3	56	24.0	0	2	338	0.00	29.833 
01:55	38.8	38.8	38.8	55	24.0	1	4	45	0.00	29.825 
02:00	39.3	39.3	39.3	54	24.1	1	5	112	0.00	29.818 
02:05	39.9	39.9	39.9	51	23.3	2	4	112	0.00	29.811 
02:10	40.3	40.3	40.3	51	23.6	1	2	22	0.00	29.813 
02:15	40.6	40.6	40.6	50	23.4	2	6	90	0.00	29.811 
02:20	40.9	40.9	40.9	51	24.2	2	6	270	0.00	29.810 
02:25	41.1	41.1	41.1	50	23.9	2	6	292	0.00	29.811 
02:30	41.2	41.2	41.2	49	23.5	1	9	270	0.00	29.809 
02:35	41.5	41.5	41.5	48	23.3	2	6	225	0.00	29.810 
02:40	41.6	41.6	41.6	48	23.4	2	9	248	0.00	29.813 
02:45	41.9	41.9	41.9	48	23.7	3	10	270	0.00	29.813 
02:50	42.1	42.1	42.1	48	23.8	3	9	225	0.00	29.811 
02:55	41.9	41.9	41.9	51	25.1	2	9	248	0.00	29.813 
03:00	41.6	41.6	41.6	53	25.8	2	8	248	0.00	29.814 
03:05	41.3	41.3	41.3	54	25.9	3	7	248	0.00	29.817 
03:10	41.3	41.3	41.3	53	25.5	2	6	248	0.00	29.812 
03:15	41.5	41.5	41.5	53	25.7	3	7	248	0.00	29.815 
03:20	41.6	41.6	41.6	53	25.8	2	7	248	0.00	29.821 
03:25	41.6	41.6	41.6	55	26.6	2	10	248	0.00	29.824 
03:30	41.3	41.3	41.3	60	28.5	2	9	270	0.00	29.824 
03:35	40.6	40.6	40.6	63	29.0	1	4	270	0.00	29.824 
03:40	40.3	40.3	40.3	65	29.5	2	6	248	0.00	29.823 
03:45	39.9	39.9	39.9	67	29.8	2	6	248	0.00	29.824 
03:50	39.6	39.6	39.6	69	30.3	1	4	248	0.01	29.821 
03:55	39.5	39.5	39.5	69	30.2	1	5	270	0.00	29.818 
04:00	39.3	39.3	39.3	70	30.3	2	6	248	0.00	29.817 
04:05	39.3	39.3	39.3	70	30.3	1	4	248	0.00	29.818 
04:10	39.2	39.2	39.2	71	30.6	1	5	270	0.00	29.815 
04:15	39.2	39.2	39.2	71	30.6	1	4	248	0.00	29.811 
04:20	39.1	39.1	39.1	71	30.5	0	2	248	0.00	29.810 
04:25	39.1	39.1	39.1	71	30.5	0	2	248	0.00	29.811 
04:30	39.1	39.1	39.1	71	30.5	0	1	248	0.00	29.808 
04:35	39.2	39.2	39.2	70	30.3	1	4	248	0.00	29.809 
04:40	39.5	39.5	39.5	69	30.2	1	4	248	0.00	29.807 
04:45	39.8	39.8	39.8	69	30.5	1	4	248	0.00	29.803 
04:50	39.9	39.9	39.9	69	30.6	1	4	248	0.00	29.801 
04:55	40.1	40.1	40.1	69	30.8	1	4	225	0.00	29.799 
05:00	40.2	40.2	40.2	68	30.5	1	4	270	0.00	29.799 
05:05	40.3	40.3	40.3	68	30.6	1	5	248	0.00	29.799 
05:10	40.6	40.6	40.6	68	30.9	1	3	248	0.01	29.799 
05:15	40.6	40.6	40.6	68	30.9	1	3	225	0.00	29.799 
05:20	40.8	40.8	40.8	68	31.1	1	4	248	0.00	29.797 
05:25	40.8	40.8	40.8	68	31.1	1	4	248	0.00	29.798 
05:30	40.9	40.9	40.9	68	31.2	1	3	248	0.00	29.795 
05:35	40.8	40.8	40.8	70	31.8	1	5	248	0.00	29.795 
05:40	40.6	40.6	40.6	71	31.9	2	5	248	0.01	29.795 
05:45	40.6	40.6	40.6	72	32.3	2	6	248	0.00	29.796 
05:50	40.5	40.5	40.5	73	32.5	1	4	248	0.00	29.796 
05:55	40.3	40.3	40.3	74	32.7	1	5	248	0.01	29.795 
06:00	40.2	40.2	40.2	75	32.9	1	3	248	0.00	29.794 
06:05	40.1	40.1	40.1	75	32.8	1	6	248	0.00	29.793 
06:10	40.1	40.1	40.1	75	32.8	1	4	225	0.01	29.793 
06:15	40.1	40.1	40.1	76	33.2	2	7	248	0.00	29.793 
06:20	40.1	40.1	40.1	76	33.2	1	4	248	0.00	29.792 
06:25	40.1	40.1	40.1	76	33.2	2	6	248	0.01	29.792 
06:30	40.2	40.2	40.2	76	33.3	2	9	248	0.00	29.792 
06:35	40.3	40.3	40.3	77	33.7	2	9	225	0.00	29.788 
06:40	40.2	40.2	40.2	77	33.6	2	6	248	0.00	29.785 
06:45	40.3	40.3	40.3	77	33.7	2	9	248	0.00	29.780 
06:50	40.3	40.3	40.3	77	33.7	2	6	315	0.00	29.779 
06:55	40.3	40.3	40.3	77	33.7	2	6	270	0.01	29.778 
07:00	40.2	40.2	40.2	78	33.9	2	6	270	0.00	29.778 
07:05	40.1	40.1	40.1	80	34.4	2	10	248	0.01	29.778 
07:10	40.1	40.1	40.1	81	34.7	2	9	248	0.00	29.779 
07:15	39.9	39.9	39.9	81	34.6	2	7	225	0.00	29.779 
07:20	39.8	39.8	39.8	82	34.8	1	5	68	0.01	29.777 
07:25	39.6	39.6	39.6	83	34.9	2	7	90	0.00	29.776 
07:30	39.6	39.6	39.6	83	34.9	2	7	248	0.00	29.776 
07:35	39.6	39.6	39.6	84	35.2	2	5	270	0.00	29.777 
07:40	39.8	39.8	39.8	84	35.4	2	5	248	0.00	29.777 
07:45	39.8	39.8	39.8	84	35.4	1	3	270	0.00	29.772 
07:50	39.8	39.8	39.8	84	35.4	2	5	315	0.01	29.775 
07:55	39.9	39.9	39.9	84	35.5	2	9	90	0.00	29.771 
08:00	39.9	39.9	39.9	85	35.8	2	6	270	0.01	29.777 
08:05	39.9	39.9	39.9	86	36.1	2	10	248	0.01	29.776 
08:10	39.9	39.9	39.9	86	36.1	2	6	270	0.01	29.778 
08:15	39.9	39.9	39.9	87	36.4	2	8	270	0.00	29.778 
08:20	39.9	39.9	39.9	87	36.4	2	6	292	0.01	29.779 
08:25	39.9	39.9	39.9	88	36.6	1	6	315	0.01	29.777 
08:30	39.8	39.8	39.8	88	36.5	1	5	270	0.00	29.777 
08:35	39.8	39.8	39.8	88	36.5	1	7	112	0.02	29.777 
08:40	39.6	39.6	39.6	89	36.6	1	4	90	0.01	29.777 
08:45	39.6	39.6	39.6	90	36.9	1	4	0	0.02	29.776 
08:50	39.6	39.6	39.6	90	36.9	1	4	0	0.01	29.777 
08:55	39.5	39.5	39.5	90	36.8	1	6	270	0.01	29.779 
09:00	39.6	39.6	39.6	91	37.2	1	5	225	0.01	29.780 
09:05	39.6	39.6	39.6	91	37.2	1	9	248	0.02	29.778 
09:10	39.6	39.6	39.6	92	37.5	1	3	270	0.01	29.778 
09:15	39.6	39.6	39.6	92	37.5	1	5	68	0.02	29.778 
09:20	39.6	39.6	39.6	92	37.5	1	4	270	0.01	29.777 
09:25	39.8	39.8	39.8	92	37.7	1	4	112	0.02	29.777 
09:30	39.8	39.8	39.8	92	37.7	1	3	248	0.02	29.775 
09:35	39.8	39.8	39.8	93	37.9	1	3	0	0.02	29.775 
09:40	39.8	39.8	39.8	93	37.9	1	3	315	0.01	29.777 
09:45	39.9	39.9	39.9	93	38.0	1	4	248	0.02	29.777 
09:50	40.1	40.1	40.1	93	38.2	1	3	248	0.01	29.776 
09:55	40.2	40.2	40.2	94	38.6	1	3	248	0.02	29.773 
10:00	40.3	40.3	40.3	94	38.7	1	3	292	0.01	29.773 
10:05	40.3	40.3	40.3	94	38.7	1	3	248	0.01	29.768 
10:10	40.5	40.5	40.5	94	38.9	1	4	68	0.01	29.764 
10:15	40.8	40.8	40.8	94	39.2	1	5	270	0.01	29.764 
10:20	40.9	40.9	40.9	94	39.3	1	5	90	0.01	29.761 
10:25	41.1	41.1	41.1	94	39.5	1	6	315	0.01	29.760 
10:30	41.2	41.2	41.2	95	39.9	1	6	45	0.02	29.758 
10:35	41.3	41.3	41.3	94	39.7	1	4	112	0.01	29.760 
10:40	41.6	41.6	41.6	95	40.3	1	7	248	0.00	29.759 
10:45	41.8	41.8	41.8	95	40.5	2	9	90	0.01	29.756 
10:50	41.9	41.9	41.9	95	40.6	2	6	270	0.01	29.753 
10:55	42.2	42.2	42.2	95	40.9	2	8	248	0.00	29.748 
11:00	42.3	42.3	42.3	95	41.0	1	4	248	0.00	29.746 
11:05	42.5	42.5	42.5	95	41.2	2	6	248	0.01	29.742 
11:10	42.6	42.6	42.6	95	41.3	2	4	225	0.00	29.737 
11:15	42.6	42.6	42.6	95	41.3	2	7	225	0.01	29.738 
11:20	42.8	42.8	42.8	95	41.5	1	4	22	0.01	29.738 
11:25	42.8	42.8	42.8	95	41.5	1	4	270	0.01	29.735 
11:30	42.9	42.9	42.9	95	41.6	1	6	270	0.01	29.728 
11:35	42.9	42.9	42.9	95	41.6	2	6	248	0.00	29.725 
11:40	43.1	43.1	43.1	95	41.8	1	4	248	0.01	29.725 
11:45	43.2	43.2	43.2	95	41.9	2	6	292	0.01	29.721 
11:50	43.3	43.3	43.3	95	42.0	2	11	292	0.00	29.718 
11:55	43.5	43.5	43.5	95	42.2	1	5	90	0.00	29.715 
12:00	43.5	43.5	43.5	95	42.2	2	6	270	0.01	29.710 
12:05	43.6	43.6	43.6	95	42.3	2	7	248	0.00	29.708 
12:10	43.8	43.8	43.8	95	42.5	2	6	248	0.01	29.705 
12:15	43.9	43.9	43.9	95	42.6	2	9	248	0.00	29.703 
12:20	44.1	44.1	44.1	95	42.8	1	5	248	0.01	29.701 
12:25	44.1	44.1	44.1	95	42.8	1	5	270	0.00	29.702 
12:30	44.2	44.2	44.2	95	42.9	2	7	248	0.01	29.701 
12:35	44.3	44.3	44.3	95	43.0	1	6	248	0.01	29.701 
12:40	44.5	44.5	44.5	95	43.2	1	5	248	0.01	29.698 
12:45	44.6	44.6	44.6	95	43.3	2	6	248	0.01	29.698 
12:50	44.8	44.8	44.8	96	43.7	2	5	248	0.01	29.694 
12:55	45.1	45.1	45.1	96	44.0	2	4	248	0.01	29.694 
13:00	45.2	45.2	45.2	96	44.1	2	6	270	0.01	29.689 
13:05	45.5	45.5	45.5	96	44.4	2	6	248	0.00	29.688 
13:10	45.7	45.7	45.7	96	44.6	3	9	248	0.01	29.688 
13:15	46.0	46.0	46.0	96	44.9	3	9	248	0.00	29.688 
13:20	46.1	44.4	46.1	96	45.0	4	11	248	0.00	29.687 
13:25	46.2	46.2	46.2	96	45.1	3	7	248	0.00	29.688 
13:30	46.5	44.8	46.5	96	45.4	4	12	248	0.00	29.689 
13:35	46.5	46.5	46.5	96	45.4	3	11	248	0.00	29.688 
13:40	46.7	45.1	46.7	95	45.3	4	11	248	0.00	29.687 
13:45	46.8	45.2	46.8	95	45.4	4	10	248	0.00	29.688 
13:50	46.8	46.8	46.8	95	45.4	3	7	248	0.00	29.686 
13:55	47.0	44.7	47.0	95	45.6	5	14	248	0.01	29.688 
14:00	47.0	45.4	47.0	95	45.6	4	10	248	0.00	29.688 
14:05	47.1	44.2	47.1	95	45.7	6	15	270	0.00	29.685 
14:10	47.1	45.5	47.1	95	45.7	4	12	248	0.00	29.685 
14:15	47.1	45.5	47.1	95	45.7	4	10	270	0.00	29.685 
14:20	47.1	44.8	47.1	95	45.7	5	11	248	0.00	29.684 
14:25	47.1	45.5	47.1	95	45.7	4	11	248	0.00	29.683 
14:30	47.3	45.8	47.3	95	45.9	4	11	270	0.00	29.683 
14:35	47.3	47.3	47.3	94	45.7	3	10	248	0.00	29.679 
14:40	47.3	47.3	47.3	94	45.7	3	10	248	0.00	29.679 
14:45	47.3	45.0	47.3	94	45.7	5	11	248	0.00	29.677 
14:50	47.3	47.3	47.3	94	45.7	3	8	248	0.00	29.678 
14:55	47.4	47.4	47.4	94	45.8	2	7	248	0.00	29.674 
15:00	47.4	45.9	47.4	94	45.8	4	10	248	0.00	29.676 
15:05	47.4	47.4	47.4	94	45.8	3	7	248	0.00	29.678 
15:10	47.4	47.4	47.4	94	45.8	2	6	270	0.00	29.679 
15:15	47.4	47.4	47.4	94	45.8	3	7	248	0.00	29.681 
15:20	47.6	47.6	47.6	94	46.0	2	9	248	0.00	29.681 
15:25	47.6	46.1	47.6	94	46.0	4	10	248	0.00	29.684 
15:30	47.6	47.6	47.6	94	46.0	3	7	248	0.00	29.686 
15:35	47.6	46.1	47.6	94	46.0	4	12	248	0.00	29.687 
15:40	47.7	47.7	47.7	94	46.1	3	9	248	0.00	29.690 
15:45	47.7	47.7	47.7	94	46.1	3	10	225	0.00	29.691 
15:50	47.7	47.7	47.7	94	46.1	3	7	248	0.00	29.694 
15:55	47.7	47.7	47.7	94	46.1	3	7	248	0.00	29.697 
16:00	47.7	47.7	47.7	94	46.1	3	10	248	0.00	29.695 
16:05	47.7	47.7	47.7	94	46.1	3	10	248	0.00	29.694 
16:10	47.7	47.7	47.7	94	46.1	3	10	248	0.00	29.693 
16:15	47.7	46.2	47.7	94	46.1	4	9	248	0.00	29.694 
16:20	47.7	47.7	47.7	94	46.1	2	6	248	0.00	29.689 
16:25	47.7	47.7	47.7	95	46.3	3	6	248	0.00	29.686 
16:30	47.7	47.7	47.7	95	46.3	2	9	270	0.00	29.688 
16:35	47.7	47.7	47.7	95	46.3	3	7	248	0.00	29.693 
16:40	47.7	47.7	47.7	95	46.3	2	5	248	0.00	29.698 
16:45	47.7	47.7	47.7	95	46.3	2	6	248	0.00	29.698 
16:50	47.7	47.7	47.7	95	46.3	3	11	248	0.00	29.699 
16:55	47.7	47.7	47.7	95	46.3	3	9	248	0.00	29.700 
17:00	47.7	47.7	47.7	95	46.3	2	6	225	0.01	29.700 
17:05	47.7	47.7	47.7	95	46.3	2	6	248	0.00	29.700 
17:10	47.7	47.7	47.7	95	46.3	2	6	248	0.00	29.700 
17:15	47.7	47.7	47.7	95	46.3	3	7	248	0.00	29.698 
17:20	47.7	47.7	47.7	95	46.3	2	6	270	0.00	29.700 
17:25	47.7	47.7	47.7	95	46.3	2	6	248	0.00	29.701 
17:30	47.7	47.7	47.7	95	46.3	2	6	248	0.00	29.705 
17:35	47.7	47.7	47.7	95	46.3	2	5	248	0.00	29.701 
17:40	47.7	47.7	47.7	95	46.3	2	6	248	0.00	29.704 
17:45	47.7	47.7	47.7	96	46.6	2	5	248	0.00	29.712 
17:50	47.7	47.7	47.7	96	46.6	1	4	248	0.00	29.715 
17:55	47.9	47.9	47.9	96	46.8	2	4	248	0.00	29.714 
18:00	47.7	47.7	47.7	96	46.6	1	5	248	0.00	29.713 
18:05	47.7	47.7	47.7	96	46.6	1	5	270	0.00	29.712 
18:10	47.9	47.9	47.9	96	46.8	2	6	248	0.01	29.715 
18:15	47.9	47.9	47.9	96	46.8	2	5	225	0.00	29.716 
18:20	47.9	47.9	47.9	96	46.8	1	4	248	0.00	29.717 
18:25	47.9	47.9	47.9	96	46.8	2	4	248	0.00	29.721 
18:30	47.9	47.9	47.9	96	46.8	1	6	248	0.00	29.719 
18:35	47.9	47.9	47.9	96	46.8	2	5	248	0.00	29.717 
18:40	47.9	47.9	47.9	96	46.8	1	5	248	0.00	29.717 
18:45	47.7	47.7	47.7	96	46.6	1	4	248	0.00	29.716 
18:50	47.7	47.7	47.7	96	46.6	1	3	248	0.01	29.718 
18:55	47.7	47.7	47.7	96	46.6	1	3	248	0.00	29.725 
19:00	47.7	47.7	47.7	96	46.6	1	6	248	0.00	29.728 
19:05	47.7	47.7	47.7	96	46.6	0	2	248	0.00	29.730 
19:10	47.7	47.7	47.7	96	46.6	1	4	248	0.00	29.735 
19:15	47.7	47.7	47.7	96	46.6	1	3	248	0.00	29.735 
19:20	47.6	47.6	47.6	96	46.5	0	2	248	0.00	29.734 
19:25	47.6	47.6	47.6	96	46.5	0	3	248	0.01	29.733 
19:30	47.6	47.6	47.6	96	46.5	0	2	248	0.01	29.732 
19:35	47.6	47.6	47.6	96	46.5	0	1	248	0.01	29.731 
19:40	47.6	47.6	47.6	96	46.5	0	0	---	0.00	29.733 
19:45	47.4	47.4	47.4	96	46.3	0	0	---	0.01	29.733 
19:50	47.4	47.4	47.4	96	46.3	0	2	248	0.00	29.733 
19:55	47.4	47.4	47.4	96	46.3	0	1	248	0.00	29.736 
20:00	47.4	47.4	47.4	96	46.3	0	1	248	0.01	29.735 
20:05	47.3	47.3	47.3	96	46.2	0	0	---	0.00	29.738 
20:10	47.3	47.3	47.3	96	46.2	0	0	---	0.00	29.738 
20:15	47.3	47.3	47.3	96	46.2	0	0	---	0.00	29.745 
20:20	47.3	47.3	47.3	96	46.2	0	1	248	0.00	29.740 
20:25	47.1	47.1	47.1	96	46.0	0	1	248	0.00	29.735 
20:30	47.1	47.1	47.1	96	46.0	0	0	---	0.00	29.733 
20:35	47.0	47.0	47.0	96	45.9	0	0	---	0.00	29.733 
20:40	47.0	47.0	47.0	96	45.9	0	0	---	0.01	29.731 
20:45	46.8	46.8	46.8	96	45.7	0	1	248	0.00	29.735 
20:50	46.8	46.8	46.8	96	45.7	0	1	248	0.00	29.733 
20:55	46.8	46.8	46.8	96	45.7	0	1	248	0.00	29.733 
21:00	46.7	46.7	46.7	96	45.6	0	1	248	0.00	29.733 
21:05	46.7	46.7	46.7	96	45.6	0	1	248	0.00	29.736 
21:10	46.7	46.7	46.7	96	45.6	0	1	248	0.00	29.735 
21:15	46.5	46.5	46.5	96	45.4	0	2	315	0.00	29.739 
21:20	46.4	46.4	46.4	96	45.3	0	2	315	0.00	29.736 
21:25	46.0	46.0	46.0	96	44.9	1	5	270	0.00	29.744 
21:30	45.2	45.2	45.2	96	44.1	0	2	315	0.00	29.749 
21:35	44.8	44.8	44.8	96	43.7	0	2	315	0.00	29.750 
21:40	44.3	44.3	44.3	96	43.2	1	4	0	0.00	29.750 
21:45	44.2	44.2	44.2	96	43.1	0	2	0	0.00	29.752 
21:50	43.9	43.9	43.9	96	42.8	1	4	292	0.00	29.755 
21:55	43.8	43.8	43.8	96	42.7	1	6	315	0.00	29.767 
22:00	43.6	43.6	43.6	96	42.5	0	3	315	0.00	29.767 
22:05	43.2	43.2	43.2	96	42.1	1	3	292	0.00	29.768 
22:10	42.5	42.5	42.5	96	41.4	1	6	0	0.00	29.771 
22:15	41.3	41.3	41.3	96	40.2	2	6	292	0.00	29.767 
22:20	40.1	40.1	40.1	95	38.8	2	7	0	0.01	29.769 
22:25	38.9	38.9	38.9	95	37.6	2	5	292	0.00	29.777 
22:30	38.3	38.3	38.3	95	37.0	1	5	270	0.01	29.783 
22:35	37.8	37.8	37.8	95	36.5	1	3	338	0.01	29.787 
22:40	37.3	37.3	37.3	95	36.0	1	4	315	0.00	29.789 
22:45	36.6	36.6	36.6	95	35.3	2	6	22	0.01	29.798 
22:50	36.3	36.3	36.3	95	35.0	1	4	292	0.00	29.802 
22:55	36.0	36.0	36.0	95	34.7	1	3	315	0.01	29.805 
23:00	35.8	35.8	35.8	95	34.5	1	5	0	0.00	29.806 
23:05	35.3	35.3	35.3	95	34.0	1	4	0	0.00	29.805 
23:10	35.0	35.0	35.0	95	33.7	1	4	315	0.01	29.815 
23:15	34.7	34.7	34.7	95	33.4	1	3	315	0.00	29.821 
23:20	34.4	34.4	34.4	95	33.1	1	5	292	0.00	29.821 
23:25	34.3	34.3	34.3	95	33.0	2	4	315	0.00	29.823 
23:30	34.1	34.1	34.1	95	32.8	1	5	0	0.01	29.823 
23:35	34.0	34.0	34.0	95	32.7	1	3	338	0.00	29.825 
23:40	33.8	33.8	33.8	95	32.5	1	6	338	0.00	29.820 
23:45	33.7	33.7	33.7	95	32.4	1	5	0	0.00	29.830 
23:50	33.7	33.7	33.7	95	32.4	1	4	0	0.00	29.835 
23:55	33.5	33.5	33.5	95	32.2	1	3	0	0.01	29.835 

CoCoRaHS
IN-AL-39
A2 Web Hosting
Creative Commons License
GoDaddy
search engine by freefind advanced

loaded 2018-11-13 23:54:59 • last modified 2010-11-18 10:43:29
Privacy PolicyDisclaimer
• wx.awcolley.com is powered by PmWiki v.2002016 •
• all content (unless otherwise noted) © 2018 A W Colley